Time;durP1;ratioP1;P1;durP2;ratioP2;P2;SDS_P1;SDS_P2;PMS_P1;PMS_P2;Temp;Humidity;BMP_temperature;BMP_pressure;BME280_temperature;BME280_humidity;BME280_pressure;Samples;Min_cycle;Max_cycle;Signal;HPM_P1;HPM_P2
2022/03/18 00:01:05;;;;;;;13.60;4.25;;;;;;;8.52;58.40;102494.28;4137700;28;20050;-69
2022/03/18 00:03:09;;;;;;;12.85;4.13;;;;;;;8.55;57.99;102496.16;4135878;28;20464;-69
2022/03/18 00:05:12;;;;;;;11.68;3.95;;;;;;;8.46;58.67;102499.13;4135371;28;20052;-69
2022/03/18 00:07:15;;;;;;;9.25;4.13;;;;;;;8.37;59.16;102506.38;4143591;28;20038;-69
2022/03/18 00:09:18;;;;;;;12.70;4.43;;;;;;;8.44;58.68;102499.81;4135666;28;20069;-69
2022/03/18 00:11:21;;;;;;;11.90;4.35;;;;;;;8.56;58.19;102505.72;4138256;28;20113;-69
2022/03/18 00:13:23;;;;;;;19.55;5.00;;;;;;;8.48;58.56;102501.81;4145524;28;20056;-69
2022/03/18 00:15:27;;;;;;;13.82;4.45;;;;;;;8.52;58.20;102498.59;4146199;28;20557;-69
2022/03/18 00:17:30;;;;;;;11.05;4.40;;;;;;;8.44;58.76;102499.81;4145396;28;20508;-69
2022/03/18 00:19:34;;;;;;;11.93;4.18;;;;;;;8.41;58.88;102497.06;4133944;28;20100;-69
2022/03/18 00:21:37;;;;;;;11.32;4.00;;;;;;;8.32;58.96;102503.53;4136459;28;20037;-69
2022/03/18 00:23:40;;;;;;;11.75;3.90;;;;;;;8.47;58.67;102510.38;4138400;28;20041;-69
2022/03/18 00:25:42;;;;;;;14.27;4.47;;;;;;;8.32;59.11;102503.53;4142957;28;20496;-69
2022/03/18 00:27:46;;;;;;;13.75;3.85;;;;;;;8.33;59.16;102497.50;4144913;28;20041;-70
2022/03/18 00:29:49;;;;;;;11.73;4.25;;;;;;;8.46;58.40;102508.63;4137854;28;20035;-70
2022/03/18 00:31:52;;;;;;;9.40;4.28;;;;;;;8.44;58.92;102508.53;4137793;28;20046;-70
2022/03/18 00:33:54;;;;;;;7.65;3.22;;;;;;;8.46;58.73;102506.03;4133034;28;20562;-70
2022/03/18 00:35:59;;;;;;;9.57;4.15;;;;;;;8.36;58.79;102510.63;4145433;28;20465;-69
2022/03/18 00:38:02;;;;;;;10.03;4.27;;;;;;;8.36;59.01;102510.63;4146546;28;20041;-69
2022/03/18 00:40:07;;;;;;;11.73;4.33;;;;;;;8.32;58.65;102515.56;4145124;28;20285;-69
2022/03/18 00:42:11;;;;;;;13.48;5.57;;;;;;;8.33;59.09;102513.06;4142775;28;20303;-69
2022/03/18 00:44:14;;;;;;;13.57;3.83;;;;;;;8.38;58.43;102516.81;4134302;28;20046;-69
2022/03/18 00:46:20;;;;;;;16.85;4.95;;;;;;;8.39;58.85;102508.22;4142275;28;20050;-69
2022/03/18 00:53:05;;;;;;;13.48;3.88;;;;;;;8.16;59.51;102506.03;4133778;28;20046;-69
2022/03/18 00:55:09;;;;;;;13.95;4.22;;;;;;;8.23;59.49;102504.69;4139087;28;20038;-69
2022/03/18 00:57:12;;;;;;;17.13;4.28;;;;;;;8.19;59.29;102511.38;4148151;28;20136;-69
2022/03/18 00:59:15;;;;;;;12.90;3.55;;;;;;;8.33;58.80;102513.06;4145966;28;20037;-68
2022/03/18 01:01:18;;;;;;;10.95;4.07;;;;;;;8.31;58.72;102517.28;4147880;28;20038;-69
2022/03/18 01:03:21;;;;;;;12.25;3.72;;;;;;;8.34;58.30;102508.78;4141611;28;20058;-68
2022/03/18 01:05:24;;;;;;;12.90;3.70;;;;;;;8.26;58.43;102513.53;4164029;28;20057;-69
2022/03/18 01:07:28;;;;;;;14.73;3.80;;;;;;;8.10;59.28;102513.47;4146714;28;20096;-69
2022/03/18 01:09:32;;;;;;;8.32;3.72;;;;;;;8.05;59.66;102515.78;4149361;28;20056;-69
2022/03/18 01:11:35;;;;;;;13.68;3.67;;;;;;;8.25;58.83;102518.63;4139759;28;20512;-68
2022/03/18 01:13:38;;;;;;;12.55;4.22;;;;;;;8.30;58.03;102523.25;4132517;28;20046;-68
2022/03/18 01:15:41;;;;;;;14.02;4.00;;;;;;;8.27;58.31;102517.03;4143870;28;20519;-69
2022/03/18 01:17:43;;;;;;;12.30;4.07;;;;;;;8.16;58.36;102522.50;4141986;28;20080;-69
2022/03/18 01:19:46;;;;;;;10.93;4.05;;;;;;;8.19;58.28;102521.75;4133971;28;20050;-69
2022/03/18 01:21:49;;;;;;;8.43;3.70;;;;;;;8.13;58.49;102526.59;4138401;28;20045;-69
2022/03/18 01:23:51;;;;;;;12.30;3.72;;;;;;;8.21;58.58;102527.94;4138563;28;20093;-69
2022/03/18 01:25:55;;;;;;;10.80;4.20;;;;;;;8.07;59.12;102529.72;4135979;28;20177;-70
2022/03/18 01:28:01;;;;;;;11.95;4.03;;;;;;;8.06;58.66;102519.25;4147361;28;20069;-69
2022/03/18 01:30:05;;;;;;;8.95;4.10;;;;;;;8.14;58.63;102530.97;4145601;28;20034;-69
2022/03/18 01:32:08;;;;;;;10.63;4.25;;;;;;;8.11;58.39;102523.03;4143526;28;20100;-69
2022/03/18 01:34:11;;;;;;;17.10;3.95;;;;;;;8.07;58.70;102527.13;4133809;28;20046;-69
2022/03/18 01:36:14;;;;;;;13.20;4.65;;;;;;;8.16;58.12;102518.97;4145372;28;20044;-69
2022/03/18 01:38:16;;;;;;;15.07;4.40;;;;;;;8.17;58.30;102521.66;4147817;28;20056;-68
2022/03/18 01:40:19;;;;;;;9.75;3.67;;;;;;;8.14;58.72;102525.78;4147549;28;20082;-68
2022/03/18 01:42:23;;;;;;;9.25;3.67;;;;;;;7.98;58.94;102524.88;4135589;28;20161;-68
2022/03/18 01:44:26;;;;;;;14.40;5.28;;;;;;;7.93;58.78;102523.75;4143379;28;20046;-69
2022/03/18 01:46:29;;;;;;;18.58;4.38;;;;;;;7.97;58.81;102517.94;4146164;28;20057;-69
2022/03/18 01:48:32;;;;;;;13.15;3.85;;;;;;;7.96;58.80;102521.31;4145938;28;20524;-68
2022/03/18 01:50:35;;;;;;;10.13;3.70;;;;;;;8.02;59.01;102525.97;4138004;28;20042;-69
2022/03/18 01:52:38;;;;;;;11.88;3.45;;;;;;;8.02;58.84;102534.63;4144820;28;20048;-69
2022/03/18 01:54:47;;;;;;;12.73;4.20;;;;;;;7.99;58.93;102529.28;4141507;28;20384;-69
2022/03/18 01:56:51;;;;;;;13.43;4.00;;;;;;;7.96;58.88;102530.81;4143423;28;20050;-69
2022/03/18 01:58:55;;;;;;;12.32;4.13;;;;;;;7.93;58.79;102534.09;4143423;28;20566;-69
2022/03/18 02:00:58;;;;;;;14.10;4.68;;;;;;;7.92;59.37;102521.06;4143873;28;20052;-69
2022/03/18 02:03:01;;;;;;;11.68;4.05;;;;;;;7.97;59.16;102532.56;4140117;28;20408;-69
2022/03/18 02:05:05;;;;;;;15.07;4.28;;;;;;;7.96;59.07;102526.50;4141433;28;20052;-69
2022/03/18 02:07:08;;;;;;;12.38;4.60;;;;;;;8.01;58.83;102527.66;4144574;28;20408;-69
2022/03/18 02:09:11;;;;;;;10.75;4.43;;;;;;;8.03;58.56;102531.25;4147218;28;20038;-69
2022/03/18 02:11:14;;;;;;;11.77;4.32;;;;;;;7.99;59.00;102533.56;4140505;28;20057;-69
2022/03/18 02:13:18;;;;;;;13.98;4.47;;;;;;;8.00;59.01;102527.56;4134630;28;20190;-69
2022/03/18 02:15:22;;;;;;;13.65;3.97;;;;;;;7.94;58.88;102533.28;4143097;28;20057;-69
2022/03/18 02:17:25;;;;;;;15.05;4.57;;;;;;;7.92;59.07;102536.59;4148504;28;20504;-69
2022/03/18 02:19:28;;;;;;;10.60;3.50;;;;;;;7.89;59.24;102539.91;4140672;28;20081;-69
2022/03/18 02:21:33;;;;;;;11.90;3.92;;;;;;;7.89;59.35;102539.91;4140803;28;20042;-69
2022/03/18 02:23:37;;;;;;;13.50;4.22;;;;;;;7.95;58.52;102541.97;4146358;28;20495;-69
2022/03/18 02:25:40;;;;;;;12.70;4.30;;;;;;;7.82;58.95;102540.34;4132974;28;20054;-68
2022/03/18 02:27:55;;;;;;;14.63;4.50;;;;;;;7.86;58.90;102537.13;4143943;28;20104;-69
2022/03/18 02:29:57;;;;;;;10.80;3.92;;;;;;;7.80;58.85;102548.03;4137246;28;20042;-69
2022/03/18 02:32:01;;;;;;;16.42;4.47;;;;;;;8.02;58.07;102547.59;4141266;28;20050;-69
2022/03/18 02:34:03;;;;;;;11.88;4.18;;;;;;;7.85;59.05;102549.16;4142009;28;20056;-69
2022/03/18 02:36:06;;;;;;;9.30;3.33;;;;;;;7.91;58.97;102548.63;4139572;28;20103;-69
2022/03/18 02:38:09;;;;;;;14.40;5.93;;;;;;;7.82;59.34;102541.22;4144361;28;20138;-69
2022/03/18 02:40:15;;;;;;;15.90;3.75;;;;;;;7.92;58.72;102544.38;4140393;28;20042;-69
2022/03/18 02:42:18;;;;;;;24.88;4.63;;;;;;;7.83;59.19;102547.31;4134910;28;20133;-69
2022/03/18 02:44:21;;;;;;;10.45;4.00;;;;;;;7.76;58.99;102538.28;4141786;28;20042;-69
2022/03/18 02:46:24;;;;;;;11.57;3.85;;;;;;;7.81;58.71;102535.94;4144939;28;20113;-69
2022/03/18 02:48:27;;;;;;;15.63;4.35;;;;;;;7.79;58.80;102541.03;4145140;28;20080;-69
2022/03/18 02:50:30;;;;;;;7.43;3.45;;;;;;;7.73;58.78;102548.47;4134241;28;20049;-69
2022/03/18 02:52:33;;;;;;;11.60;4.03;;;;;;;7.81;59.30;102541.13;4134835;28;20983;-67
2022/03/18 02:54:36;;;;;;;12.15;4.25;;;;;;;7.79;59.33;102541.03;4146121;28;20061;-67
2022/03/18 02:56:41;;;;;;;9.10;4.05;;;;;;;7.70;59.05;102548.28;4139746;28;20519;-67
2022/03/18 02:58:44;;;;;;;13.85;4.95;;;;;;;7.75;58.99;102551.13;4146222;28;20155;-67
2022/03/18 03:00:46;;;;;;;15.15;4.85;;;;;;;7.58;59.43;102547.53;4132642;28;20046;-67
2022/03/18 03:02:49;;;;;;;11.32;4.57;;;;;;;7.69;59.40;102547.41;4140599;28;20403;-67
2022/03/18 03:09:32;;;;;;;11.10;4.25;;;;;;;7.65;59.59;102552.28;4147910;28;20052;-67
2022/03/18 03:11:35;;;;;;;10.50;4.38;;;;;;;7.75;59.38;102552.00;4142258;28;20042;-67
2022/03/18 03:13:39;;;;;;;14.38;4.50;;;;;;;7.60;59.27;102558.88;4136537;28;20048;-67
2022/03/18 03:15:42;;;;;;;14.25;4.13;;;;;;;7.61;59.43;102555.50;4145201;28;20407;-67
2022/03/18 03:17:44;;;;;;;15.75;3.90;;;;;;;7.66;59.62;102560.13;4143742;28;20045;-67
2022/03/18 03:19:48;;;;;;;14.38;4.63;;;;;;;7.64;59.36;102564.34;4151860;28;20045;-67
2022/03/18 03:21:50;;;;;;;14.02;4.88;;;;;;;7.62;59.46;102565.94;4145226;28;20042;-67
2022/03/18 03:23:53;;;;;;;9.82;3.75;;;;;;;7.55;59.67;102568.97;4140396;28;20416;-68
2022/03/18 03:25:57;;;;;;;13.70;4.50;;;;;;;7.55;59.79;102568.97;4141082;28;20049;-68
2022/03/18 03:27:59;;;;;;;16.20;4.75;;;;;;;7.54;59.99;102577.53;4144861;28;20516;-68
2022/03/18 03:30:06;;;;;;;14.73;5.22;;;;;;;7.54;59.89;102577.53;4142900;28;20042;-68
2022/03/18 03:32:09;;;;;;;12.35;4.50;;;;;;;7.56;59.75;102587.97;4133562;28;20519;-68
2022/03/18 03:34:14;;;;;;;15.50;4.60;;;;;;;7.53;60.20;102591.25;4130564;28;20065;-68
2022/03/18 03:36:17;;;;;;;14.65;4.90;;;;;;;7.53;59.80;102591.25;4143952;28;20463;-68
2022/03/18 03:38:21;;;;;;;13.68;5.05;;;;;;;7.57;59.63;102582.88;4147141;28;20113;-68
2022/03/18 03:40:24;;;;;;;14.20;4.80;;;;;;;7.45;60.42;102600.25;4145192;28;20507;-67
2022/03/18 03:42:27;;;;;;;19.35;4.85;;;;;;;7.43;60.37;102591.50;4138711;28;20050;-68
2022/03/18 03:44:30;;;;;;;15.43;5.13;;;;;;;7.59;60.00;102601.97;4137144;28;20045;-67
2022/03/18 03:46:34;;;;;;;11.77;4.18;;;;;;;7.56;59.62;102601.78;4140795;28;20088;-68
2022/03/18 03:48:37;;;;;;;11.55;4.15;;;;;;;7.50;59.94;102592.00;4138200;28;20049;-68
2022/03/18 03:50:41;;;;;;;10.55;4.20;;;;;;;7.52;59.39;102599.84;4133056;28;20092;-67
2022/03/18 03:52:44;;;;;;;16.60;5.35;;;;;;;7.51;59.53;102598.03;4136782;28;20049;-68
2022/03/18 03:54:47;;;;;;;13.27;4.75;;;;;;;7.43;60.20;102609.59;4140431;28;20058;-67
2022/03/18 03:56:50;;;;;;;15.80;4.80;;;;;;;7.32;60.83;102602.06;4140551;28;20050;-67
2022/03/18 03:58:52;;;;;;;15.65;4.78;;;;;;;7.33;60.44;102606.47;4145380;28;20033;-68
2022/03/18 04:00:55;;;;;;;14.07;4.93;;;;;;;7.40;60.05;102612.88;4141279;28;20042;-68
2022/03/18 04:02:59;;;;;;;19.58;5.05;;;;;;;7.32;60.61;102607.25;4139398;28;20046;-68
2022/03/18 04:05:02;;;;;;;18.98;5.38;;;;;;;7.34;60.43;102615.09;4141829;28;20037;-67
2022/03/18 04:07:05;;;;;;;14.85;4.90;;;;;;;7.40;60.68;102619.78;4146036;28;20117;-67
2022/03/18 04:09:07;;;;;;;14.27;4.40;;;;;;;7.38;60.90;102611.03;4146320;28;20049;-69
2022/03/18 04:11:10;;;;;;;12.77;5.05;;;;;;;7.42;60.29;102620.78;4141685;28;20034;-67
2022/03/18 04:13:13;;;;;;;10.25;4.55;;;;;;;7.45;60.25;102614.09;4131693;28;20183;-67
2022/03/18 04:15:16;;;;;;;16.33;4.78;;;;;;;7.33;60.76;102623.69;4141240;28;20100;-67
2022/03/18 04:17:19;;;;;;;14.27;5.25;;;;;;;7.41;60.55;102630.22;4146786;28;20050;-67
2022/03/18 04:19:23;;;;;;;13.25;5.05;;;;;;;7.47;60.30;102627.13;4141252;28;20038;-67
2022/03/18 04:21:26;;;;;;;15.30;4.90;;;;;;;7.42;60.42;102636.31;4144827;28;20038;-68
2022/03/18 04:23:29;;;;;;;18.05;5.35;;;;;;;7.26;61.00;102642.22;4136132;28;20072;-67
2022/03/18 04:25:31;;;;;;;13.18;4.68;;;;;;;7.31;60.84;102640.78;4144033;28;20045;-68
2022/03/18 04:27:35;;;;;;;13.40;5.55;;;;;;;7.34;60.87;102651.34;4139568;28;20078;-68
2022/03/18 04:29:38;;;;;;;15.27;4.77;;;;;;;7.40;60.52;102651.72;4137434;28;20429;-68
2022/03/18 04:31:42;;;;;;;13.35;4.47;;;;;;;7.43;60.10;102645.84;4136086;28;20093;-68
2022/03/18 04:33:45;;;;;;;15.13;4.93;;;;;;;7.31;60.62;102651.13;4153157;28;20431;-67
2022/03/18 04:35:51;;;;;;;15.88;4.82;;;;;;;7.28;60.49;102650.94;4161319;28;20084;-67
2022/03/18 04:37:53;;;;;;;19.13;5.22;;;;;;;7.31;60.83;102654.63;4146701;28;20042;-67
2022/03/18 04:39:56;;;;;;;11.07;4.53;;;;;;;7.25;61.38;102662.00;4137062;28;20060;-68
2022/03/18 04:41:59;;;;;;;12.05;4.57;;;;;;;7.24;60.92;102660.22;4135423;28;20050;-68
2022/03/18 04:44:02;;;;;;;13.63;4.57;;;;;;;7.23;61.32;102663.59;4136279;28;20042;-68
2022/03/18 04:46:04;;;;;;;13.82;4.70;;;;;;;7.17;61.15;102670.97;4144776;28;20112;-67
2022/03/18 04:48:07;;;;;;;9.85;4.05;;;;;;;7.03;61.74;102664.91;4146069;28;20037;-67
2022/03/18 04:50:10;;;;;;;10.18;4.28;;;;;;;7.22;61.31;102666.97;4137002;28;20043;-67
2022/03/18 04:52:15;;;;;;;13.38;3.95;;;;;;;7.12;61.54;102672.38;4137669;28;20034;-67
2022/03/18 04:54:17;;;;;;;16.98;5.07;;;;;;;7.20;61.04;102667.66;4139032;28;20454;-67
2022/03/18 04:58:40;;;;;;;11.30;4.47;;;;;;;7.27;60.83;102678.53;4146169;28;20045;-68
2022/03/18 05:00:43;;;;;;;14.88;4.90;;;;;;;7.21;61.17;102680.69;4143390;28;20508;-68
2022/03/18 05:02:46;;;;;;;11.32;4.97;;;;;;;7.20;60.88;102681.53;4142534;28;20396;-67
2022/03/18 05:04:49;;;;;;;16.65;4.60;;;;;;;7.12;61.68;102686.19;4138893;28;20042;-69
2022/03/18 05:06:52;;;;;;;12.13;4.57;;;;;;;7.22;61.35;102687.69;4145223;28;20046;-68
2022/03/18 05:08:56;;;;;;;15.07;4.70;;;;;;;7.16;61.58;102692.47;4142000;28;20285;-68
2022/03/18 05:10:59;;;;;;;20.63;5.38;;;;;;;7.21;61.50;102698.81;4142245;28;20049;-68
2022/03/18 05:13:01;;;;;;;16.55;4.85;;;;;;;7.20;61.18;102703.88;4137892;28;20095;-68
2022/03/18 05:15:05;;;;;;;14.13;4.45;;;;;;;7.15;61.34;102703.59;4145355;28;20045;-68
2022/03/18 05:17:09;;;;;;;13.07;5.38;;;;;;;7.20;61.56;102707.38;4139516;28;20038;-68
2022/03/18 05:19:12;;;;;;;16.10;5.43;;;;;;;7.19;61.18;102700.41;4145174;28;20511;-68
2022/03/18 05:21:15;;;;;;;18.65;6.60;;;;;;;7.11;61.91;102705.09;4140341;28;20089;-67
2022/03/18 05:23:18;;;;;;;15.98;5.28;;;;;;;7.13;61.75;102713.84;4140794;28;20037;-68
2022/03/18 05:25:22;;;;;;;20.88;5.13;;;;;;;7.03;61.66;102713.16;4140724;28;20042;-68
2022/03/18 05:27:25;;;;;;;15.13;5.50;;;;;;;7.09;61.92;102722.19;4145656;28;20112;-68
2022/03/18 05:29:28;;;;;;;27.17;5.38;;;;;;;6.97;62.75;102727.47;4145024;28;20137;-69
2022/03/18 05:31:31;;;;;;;20.60;5.43;;;;;;;6.95;62.22;102720.41;4138960;28;20045;-69
2022/03/18 05:33:34;;;;;;;18.15;5.95;;;;;;;7.06;62.38;102728.88;4143548;28;20452;-69
2022/03/18 05:35:37;;;;;;;17.42;5.90;;;;;;;7.01;62.27;102727.66;4145144;28;20124;-69
2022/03/18 05:37:40;;;;;;;12.18;5.47;;;;;;;7.00;62.19;102726.78;4140069;28;20038;-69
2022/03/18 05:39:44;;;;;;;12.75;5.57;;;;;;;6.99;62.04;102731.06;4139213;28;20357;-68
2022/03/18 05:41:48;;;;;;;14.00;5.05;;;;;;;6.98;62.30;102731.84;4143697;28;20041;-69
2022/03/18 05:43:52;;;;;;;17.75;5.20;;;;;;;6.96;62.28;102733.44;4140663;28;20049;-68
2022/03/18 05:45:55;;;;;;;18.88;5.57;;;;;;;6.94;62.66;102742.78;4144132;28;20050;-68
2022/03/18 05:47:59;;;;;;;21.33;6.18;;;;;;;6.95;62.32;102742.00;4148260;28;20046;-69
2022/03/18 05:50:05;;;;;;;22.65;6.47;;;;;;;6.89;62.45;102740.69;4141691;28;20034;-68
2022/03/18 05:52:08;;;;;;;20.75;6.90;;;;;;;6.73;62.83;102741.34;4163775;28;20045;-69
2022/03/18 05:54:11;;;;;;;13.05;5.55;;;;;;;6.75;63.28;102742.38;4141534;28;20088;-68
2022/03/18 05:58:35;;;;;;;18.30;5.90;;;;;;;6.87;62.74;102745.75;4140530;28;20050;-68
2022/03/18 06:00:38;;;;;;;17.08;6.20;;;;;;;6.83;63.19;102751.50;4142066;28;20042;-68
2022/03/18 06:02:41;;;;;;;14.57;4.90;;;;;;;6.80;62.65;102762.56;4140412;28;20113;-68
2022/03/18 06:04:45;;;;;;;16.38;6.45;;;;;;;6.92;62.77;102762.50;4139290;28;20113;-68
2022/03/18 06:06:48;;;;;;;15.35;7.43;;;;;;;6.87;62.57;102756.09;4163577;28;20046;-68
2022/03/18 06:13:31;;;;;;;19.70;6.28;;;;;;;6.83;63.04;102759.28;4140394;28;20053;-68
2022/03/18 06:15:36;;;;;;;16.95;7.22;;;;;;;6.79;63.10;102759.84;4141850;28;20046;-68
2022/03/18 06:17:38;;;;;;;16.42;5.95;;;;;;;6.87;62.63;102762.97;4142363;28;20492;-68
2022/03/18 06:19:41;;;;;;;17.40;5.93;;;;;;;6.75;63.01;102761.34;4139856;28;20042;-68
2022/03/18 06:21:44;;;;;;;19.58;6.70;;;;;;;6.68;63.38;102764.31;4142319;28;20045;-68
2022/03/18 06:23:48;;;;;;;14.45;5.50;;;;;;;6.72;63.22;102771.50;4142301;28;20108;-67
2022/03/18 06:25:54;;;;;;;19.92;6.15;;;;;;;6.76;63.54;102770.00;4138224;28;20042;-67
2022/03/18 06:27:57;;;;;;;12.13;5.95;;;;;;;6.83;63.00;102769.63;4138892;28;20049;-68
2022/03/18 06:30:05;;;;;;;12.38;5.88;;;;;;;6.75;63.15;102770.81;4142014;28;20494;-68
2022/03/18 06:32:10;;;;;;;17.02;5.88;;;;;;;6.66;63.48;102775.34;4137493;28;20038;-68
2022/03/18 06:34:14;;;;;;;19.90;7.20;;;;;;;6.71;63.33;102784.31;4162321;28;20076;-68
2022/03/18 06:36:18;;;;;;;9.73;5.32;;;;;;;6.78;63.25;102784.81;4142846;28;20042;-68
2022/03/18 06:38:21;;;;;;;19.17;6.78;;;;;;;6.71;63.38;102779.16;4143299;28;20327;-68
2022/03/18 06:40:23;;;;;;;13.73;6.15;;;;;;;6.68;63.66;102789.28;4143103;28;20491;-68
2022/03/18 06:42:26;;;;;;;13.48;6.07;;;;;;;6.66;63.79;102796.94;4137746;28;20053;-69
2022/03/18 06:44:29;;;;;;;15.27;6.47;;;;;;;6.62;63.46;102795.81;4140278;28;20042;-69
2022/03/18 06:46:31;;;;;;;19.70;6.95;;;;;;;6.74;63.24;102789.69;4140494;28;20514;-68
2022/03/18 06:48:36;;;;;;;22.77;8.80;;;;;;;6.67;63.98;102797.81;4139995;28;20499;-68
2022/03/18 06:50:38;;;;;;;19.60;6.90;;;;;;;6.85;63.30;102804.25;4140297;28;20526;-68
2022/03/18 06:52:41;;;;;;;18.30;5.95;;;;;;;6.62;63.61;102800.97;4141597;28;20038;-68
2022/03/18 06:54:44;;;;;;;17.63;6.95;;;;;;;6.75;63.39;102809.59;4142181;28;20042;-68
2022/03/18 06:56:47;;;;;;;12.25;6.22;;;;;;;6.69;63.57;102802.31;4138117;28;20495;-68
2022/03/18 06:58:50;;;;;;;20.13;7.38;;;;;;;6.80;63.51;102803.03;4138153;28;20524;-68
2022/03/18 07:00:53;;;;;;;22.83;7.70;;;;;;;6.81;63.39;102808.28;4137625;28;20089;-68
2022/03/18 07:02:56;;;;;;;17.90;7.20;;;;;;;6.94;62.55;102820.38;4141782;28;20411;-67
2022/03/18 07:05:00;;;;;;;19.75;7.68;;;;;;;6.87;62.74;102818.16;4139992;28;20054;-69
2022/03/18 07:07:03;;;;;;;30.20;7.22;;;;;;;6.98;62.79;102827.53;4142873;28;20451;-68
2022/03/18 07:09:05;;;;;;;17.40;7.35;;;;;;;6.96;62.76;102818.75;4141134;28;20053;-70
2022/03/18 07:11:13;;;;;;;17.52;7.35;;;;;;;6.90;62.83;102820.94;4146900;28;20057;-69
2022/03/18 07:13:16;;;;;;;19.75;8.50;;;;;;;6.91;63.46;102819.28;4134970;28;20034;-69
2022/03/18 07:15:19;;;;;;;19.27;7.65;;;;;;;6.91;63.01;102825.34;4137040;28;20100;-69
2022/03/18 07:19:43;;;;;;;17.15;7.47;;;;;;;6.97;62.97;102841.25;4145077;28;20121;-69
2022/03/18 07:21:48;;;;;;;33.72;7.90;;;;;;;6.99;63.03;102844.84;4130540;28;20073;-69
2022/03/18 07:23:51;;;;;;;20.90;7.40;;;;;;;6.89;63.76;102842.44;4131025;28;20034;-67
2022/03/18 07:25:54;;;;;;;18.98;6.85;;;;;;;7.02;63.40;102843.25;4131296;28;20057;-68
2022/03/18 07:27:57;;;;;;;26.88;7.80;;;;;;;7.05;62.98;102849.53;4139083;28;20073;-68
2022/03/18 07:30:00;;;;;;;22.40;8.02;;;;;;;7.02;62.99;102841.56;4148481;28;20038;-68
2022/03/18 07:32:03;;;;;;;17.95;6.88;;;;;;;7.06;63.20;102846.16;4148067;28;20049;-67
2022/03/18 07:34:06;;;;;;;15.77;7.28;;;;;;;6.95;63.14;102853.19;4148482;28;20439;-68
2022/03/18 07:36:09;;;;;;;20.38;7.80;;;;;;;7.13;62.90;102853.53;4143743;28;20399;-67
2022/03/18 07:38:13;;;;;;;13.55;6.70;;;;;;;7.02;63.11;102845.84;4139674;28;20069;-68
2022/03/18 07:40:16;;;;;;;18.17;7.95;;;;;;;7.09;62.75;102845.47;4139993;28;20054;-68
2022/03/18 07:42:19;;;;;;;16.48;7.10;;;;;;;7.04;63.16;102839.06;4147934;28;20409;-68
2022/03/18 07:44:22;;;;;;;18.17;9.05;;;;;;;7.11;62.75;102849.03;4148293;28;20057;-67
2022/03/18 07:46:25;;;;;;;20.60;7.63;;;;;;;7.12;62.32;102849.13;4146743;28;20122;-67
2022/03/18 07:48:28;;;;;;;18.08;8.02;;;;;;;7.20;62.46;102844.50;4139932;28;20408;-68
2022/03/18 07:50:33;;;;;;;21.92;7.07;;;;;;;7.26;61.58;102837.13;4146797;28;20049;-67
2022/03/18 07:52:36;;;;;;;17.77;7.35;;;;;;;7.18;62.80;102851.25;4147689;28;20038;-67
2022/03/18 07:54:40;;;;;;;14.75;6.40;;;;;;;7.27;62.42;102841.53;4146923;28;20507;-67
2022/03/18 07:56:43;;;;;;;19.90;7.20;;;;;;;7.32;61.93;102845.28;4140098;28;20038;-67
2022/03/18 07:58:45;;;;;;;19.58;7.20;;;;;;;7.45;61.42;102846.13;4147923;28;20088;-67
2022/03/18 08:00:48;;;;;;;21.42;7.05;;;;;;;7.48;61.24;102846.31;4147477;28;20682;-67
2022/03/18 08:02:53;;;;;;;13.48;6.50;;;;;;;7.45;61.38;102848.72;4139458;28;20034;-68
2022/03/18 08:04:56;;;;;;;;;;;;;;;7.56;61.06;102851.97;4141127;28;20519;-67
2022/03/18 08:07:00;;;;;;;18.33;6.50;;;;;;;7.61;60.28;102855.78;4143110;28;19995;-68
2022/03/18 08:09:04;;;;;;;;;;;;;;;7.55;60.54;102848.50;4143543;28;20046;-68
2022/03/18 08:11:08;;;;;;;14.68;7.22;;;;;;;7.42;60.94;102851.97;4148047;28;19942;-68
2022/03/18 08:13:11;;;;;;;13.38;5.63;;;;;;;7.53;61.13;102850.09;4141846;28;20500;-68
2022/03/18 08:15:15;;;;;;;17.17;6.35;;;;;;;7.66;60.65;102851.78;4142687;28;20579;-67
2022/03/18 08:17:18;;;;;;;20.75;6.88;;;;;;;7.71;60.33;102853.00;4147869;28;20080;-68
2022/03/18 08:19:21;;;;;;;15.82;5.63;;;;;;;7.72;60.48;102861.66;4147713;28;20046;-67
2022/03/18 08:21:24;;;;;;;19.50;6.05;;;;;;;7.85;59.96;102859.94;4146645;28;20038;-69
2022/03/18 08:23:29;;;;;;;13.38;5.55;;;;;;;7.83;60.49;102858.94;4143357;28;20075;-68
2022/03/18 08:25:32;;;;;;;15.48;6.95;;;;;;;7.98;60.36;102859.03;4133519;28;20456;-68
2022/03/18 08:27:36;;;;;;;16.40;6.20;;;;;;;8.00;60.24;102860.03;4137115;28;20502;-68
2022/03/18 08:29:39;;;;;;;12.95;5.55;;;;;;;8.03;60.32;102857.63;4139579;28;20120;-68
2022/03/18 08:31:42;;;;;;;16.90;7.10;;;;;;;8.17;59.34;102873.16;4131026;28;20054;-69
2022/03/18 08:33:44;;;;;;;14.93;5.95;;;;;;;8.23;59.14;102867.47;4135797;28;20496;-68
2022/03/18 08:35:48;;;;;;;18.10;6.63;;;;;;;8.19;59.00;102867.28;4142909;28;20042;-68
2022/03/18 08:37:57;;;;;;;13.02;6.10;;;;;;;8.19;58.79;102872.44;4142610;28;20052;-68
2022/03/18 08:39:59;;;;;;;18.83;6.97;;;;;;;8.18;59.08;102868.06;4139303;28;20037;-68
2022/03/18 08:42:02;;;;;;;14.10;5.80;;;;;;;8.38;58.50;102856.34;4139367;28;20038;-69
2022/03/18 08:44:06;;;;;;;16.45;6.03;;;;;;;8.29;59.40;102866.13;4140891;28;20389;-68
2022/03/18 08:46:09;;;;;;;17.58;6.57;;;;;;;8.42;58.12;102864.31;4145619;28;20050;-68
2022/03/18 08:48:12;;;;;;;17.17;6.35;;;;;;;8.48;57.37;102875.09;4136129;28;20084;-68
2022/03/18 08:50:16;;;;;;;15.32;6.35;;;;;;;8.50;58.14;102878.69;4137308;28;20049;-68
2022/03/18 08:52:19;;;;;;;9.60;4.70;;;;;;;8.46;58.64;102877.59;4145956;28;20535;-68
2022/03/18 08:54:22;;;;;;;21.60;7.63;;;;;;;8.39;58.31;102872.78;4138743;28;20323;-68
2022/03/18 08:56:25;;;;;;;14.82;5.47;;;;;;;8.36;58.59;102876.06;4138418;28;20042;-68
2022/03/18 08:58:27;;;;;;;11.20;5.72;;;;;;;8.53;58.17;102874.56;4138613;28;20038;-68
2022/03/18 09:00:32;;;;;;;14.07;6.65;;;;;;;8.59;57.47;102874.06;4137323;28;20050;-68
2022/03/18 09:02:36;;;;;;;;;;;;;;;8.52;57.96;102865.00;4138537;28;20045;-69
2022/03/18 09:04:39;;;;;;;14.70;6.15;;;;;;;8.54;58.39;102871.19;4138745;28;20283;-69
2022/03/18 09:06:47;;;;;;;14.48;6.32;;;;;;;8.71;57.72;102866.13;4138239;28;20045;-69
2022/03/18 09:08:49;;;;;;;14.20;5.22;;;;;;;8.77;57.58;102874.28;4140471;28;20053;-69
2022/03/18 09:10:52;;;;;;;16.83;6.32;;;;;;;8.84;56.89;102881.63;4138720;28;20046;-69
2022/03/18 09:12:58;;;;;;;16.05;6.05;;;;;;;8.84;55.99;102872.97;4141189;28;20039;-69
2022/03/18 09:15:02;;;;;;;15.80;6.22;;;;;;;8.69;56.55;102876.41;4142419;28;20412;-69
2022/03/18 09:17:06;;;;;;;17.08;5.75;;;;;;;8.82;56.71;102879.72;4142326;28;20054;-69
2022/03/18 09:19:09;;;;;;;15.25;6.38;;;;;;;8.78;57.41;102881.25;4143036;28;20050;-69
2022/03/18 09:21:13;;;;;;;16.70;6.80;;;;;;;8.92;56.65;102879.47;4143434;28;20128;-69
2022/03/18 09:23:16;;;;;;;16.33;6.57;;;;;;;8.81;56.94;102880.56;4138835;28;20053;-68
2022/03/18 09:25:19;;;;;;;13.68;5.90;;;;;;;8.89;56.57;102879.31;4141095;28;20133;-69
2022/03/18 09:27:22;;;;;;;11.93;5.22;;;;;;;8.92;57.12;102879.47;4143736;28;20396;-69
2022/03/18 09:29:26;;;;;;;15.77;6.65;;;;;;;9.07;56.29;102883.00;4144390;28;20129;-68
2022/03/18 09:31:28;;;;;;;18.40;7.35;;;;;;;9.06;56.75;102882.91;4142525;28;20069;-69
2022/03/18 09:33:32;;;;;;;14.85;6.32;;;;;;;9.09;56.53;102878.78;4142933;28;20053;-69
2022/03/18 09:35:38;;;;;;;16.13;6.27;;;;;;;9.26;55.68;102894.50;4146524;28;20161;-69
2022/03/18 09:37:41;;;;;;;16.73;6.55;;;;;;;9.17;56.10;102897.44;4140726;28;20308;-69
2022/03/18 09:39:44;;;;;;;25.05;7.28;;;;;;;9.36;55.25;102889.03;4133734;28;20066;-69
2022/03/18 09:41:47;;;;;;;16.42;6.65;;;;;;;9.30;55.46;102899.06;4139918;28;20038;-69
2022/03/18 09:43:51;;;;;;;19.90;7.38;;;;;;;9.30;55.17;102905.94;4141926;28;20708;-69
2022/03/18 09:45:54;;;;;;;12.07;5.85;;;;;;;9.32;55.26;102912.13;4144147;28;20042;-70
2022/03/18 09:48:17;;;;;;;15.60;6.97;;;;;;;9.32;55.21;102901.75;4138739;28;20045;-69
2022/03/18 09:50:22;;;;;;;16.08;7.47;;;;;;;9.30;55.40;102905.94;4137850;28;20046;-69
2022/03/18 09:52:26;;;;;;;18.25;7.35;;;;;;;9.40;55.31;102897.88;4137972;28;20864;-69
2022/03/18 09:54:34;;;;;;;13.52;6.45;;;;;;;9.42;55.21;102898.88;4144325;28;20492;-69
2022/03/18 09:56:39;;;;;;;21.17;6.53;;;;;;;9.46;55.57;102897.34;4140462;28;20561;-69